createdAt,value
2022-10-21T00:01:42.262Z,30.52
2022-10-21T00:04:09.055Z,32.17
2022-10-21T00:06:35.805Z,28.45
2022-10-21T00:09:02.616Z,27.02
2022-10-21T00:11:29.456Z,25.10
2022-10-21T00:13:56.175Z,26.08
2022-10-21T00:16:22.935Z,29.48
2022-10-21T00:18:49.828Z,38.30
2022-10-21T00:21:19.302Z,24.13
2022-10-21T00:23:47.118Z,27.30
2022-10-21T00:26:14.960Z,34.25
2022-10-21T00:28:42.357Z,32.55
2022-10-21T00:31:11.636Z,26.17
2022-10-21T00:33:38.446Z,28.73
2022-10-21T00:36:07.635Z,30.17
2022-10-21T00:38:35.526Z,24.95
2022-10-21T00:41:02.511Z,32.25
2022-10-21T00:43:29.736Z,24.25
2022-10-21T00:46:02.987Z,37.97
2022-10-21T00:48:44.666Z,28.67
2022-10-21T00:51:16.403Z,25.05
2022-10-21T00:53:46.146Z,27.88
2022-10-21T00:56:18.234Z,25.98
2022-10-21T00:58:47.992Z,30.27
2022-10-21T01:01:17.970Z,28.25
2022-10-21T01:03:47.561Z,29.75
2022-10-21T01:06:15.743Z,29.95
2022-10-21T01:08:42.610Z,34.30
2022-10-21T01:11:15.655Z,27.67
2022-10-21T01:14:01.147Z,28.80
2022-10-21T01:16:33.938Z,32.08
2022-10-21T01:19:03.438Z,35.50
2022-10-21T01:21:48.155Z,33.72
2022-10-21T01:24:45.970Z,37.50
2022-10-21T01:27:33.131Z,33.13
2022-10-21T01:30:35.006Z,38.85
2022-10-21T01:33:23.475Z,40.72
2022-10-21T01:35:58.814Z,65.35
2022-10-21T01:38:42.687Z,46.10
2022-10-21T01:41:21.827Z,33.92
2022-10-21T01:44:04.242Z,34.10
2022-10-21T01:46:41.383Z,37.67
2022-10-21T01:49:16.021Z,30.67
2022-10-21T01:51:43.688Z,33.15
2022-10-21T01:54:14.772Z,28.63
2022-10-21T01:56:44.104Z,28.98
2022-10-21T01:59:13.587Z,28.73
2022-10-21T02:01:40.888Z,29.00
2022-10-21T02:04:09.931Z,28.20
2022-10-21T02:06:36.863Z,35.30
2022-10-21T02:09:03.745Z,33.13
2022-10-21T02:11:34.060Z,34.05
2022-10-21T02:14:23.132Z,32.72
2022-10-21T02:16:52.093Z,33.90
2022-10-21T02:19:20.405Z,37.53
2022-10-21T02:21:49.631Z,30.85
2022-10-21T02:24:19.783Z,29.95
2022-10-21T02:26:46.642Z,35.38
2022-10-21T02:29:14.830Z,40.72
2022-10-21T02:31:54.666Z,32.13
2022-10-21T02:34:39.527Z,32.70
2022-10-21T02:37:24.267Z,31.25
2022-10-21T02:40:13.215Z,32.67
2022-10-21T02:42:46.004Z,33.70
2022-10-21T02:45:12.891Z,32.08
2022-10-21T02:47:40.762Z,35.42
2022-10-21T02:50:08.196Z,31.65
2022-10-21T02:52:34.980Z,29.27
2022-10-21T02:55:01.835Z,40.47
2022-10-21T02:57:28.617Z,41.42
2022-10-21T02:59:55.362Z,33.47
2022-10-21T03:02:22.102Z,34.28
2022-10-21T03:04:48.846Z,30.02
2022-10-21T03:07:15.616Z,33.33
2022-10-21T03:09:42.387Z,33.08
2022-10-21T03:12:09.146Z,35.25
2022-10-21T03:14:35.955Z,34.85
2022-10-21T03:17:02.690Z,36.95
2022-10-21T03:19:29.438Z,34.20
2022-10-21T03:21:56.442Z,38.15
2022-10-21T03:24:28.551Z,32.35
2022-10-21T03:26:56.342Z,35.50
2022-10-21T03:29:23.092Z,33.15
2022-10-21T03:31:49.810Z,40.83
2022-10-21T03:34:16.636Z,38.20
2022-10-21T03:36:43.379Z,36.42
2022-10-21T03:39:11.517Z,35.75
2022-10-21T03:41:38.516Z,30.88
2022-10-21T03:44:05.314Z,36.90
2022-10-21T03:46:32.188Z,33.65
2022-10-21T03:49:02.826Z,30.67
2022-10-21T03:51:32.668Z,36.40
2022-10-21T03:53:59.421Z,35.50
2022-10-21T03:56:26.299Z,34.72
2022-10-21T03:58:56.378Z,33.60
2022-10-21T04:01:25.456Z,31.67
2022-10-21T04:03:52.298Z,31.80
2022-10-21T04:06:19.272Z,39.47
2022-10-21T04:08:46.118Z,34.20
2022-10-21T04:11:12.920Z,28.67
2022-10-21T04:13:39.664Z,43.85
2022-10-21T04:16:08.616Z,42.08
2022-10-21T04:18:35.501Z,35.35
2022-10-21T04:21:02.322Z,29.42
2022-10-21T04:23:29.582Z,39.35
2022-10-21T04:25:56.335Z,30.83
2022-10-21T04:28:23.319Z,35.60
2022-10-21T04:30:50.885Z,34.90
2022-10-21T04:33:17.870Z,32.83
2022-10-21T04:35:44.659Z,52.70
2022-10-21T04:38:11.429Z,41.15
2022-10-21T04:40:38.194Z,31.33
2022-10-21T04:43:05.194Z,35.58
2022-10-21T04:45:32.138Z,34.47
2022-10-21T04:47:58.842Z,37.83
2022-10-21T04:50:25.620Z,35.53
2022-10-21T04:52:52.497Z,38.08
2022-10-21T04:55:19.240Z,34.53
2022-10-21T04:57:46.181Z,36.40
2022-10-21T05:00:13.348Z,34.65
2022-10-21T05:02:40.444Z,36.92
2022-10-21T05:05:07.844Z,38.35
2022-10-21T05:07:34.612Z,36.58
2022-10-21T05:10:01.509Z,39.20
2022-10-21T05:12:28.303Z,38.20
2022-10-21T05:14:55.088Z,44.58
2022-10-21T05:17:21.855Z,40.38
2022-10-21T05:19:48.595Z,40.88
2022-10-21T05:22:15.335Z,35.13
2022-10-21T05:24:42.086Z,39.67
2022-10-21T05:27:08.854Z,44.70
2022-10-21T05:29:35.600Z,43.30
2022-10-21T05:32:02.340Z,37.92
2022-10-21T05:34:29.093Z,41.85
2022-10-21T05:36:55.826Z,34.08
2022-10-21T05:39:22.744Z,37.70
2022-10-21T05:41:49.496Z,39.15
2022-10-21T05:44:16.354Z,39.45
2022-10-21T05:46:43.080Z,41.13
2022-10-21T05:49:09.917Z,33.60
2022-10-21T05:51:36.640Z,39.95
2022-10-21T05:54:05.382Z,38.13
2022-10-21T05:56:32.440Z,40.95
2022-10-21T05:58:59.180Z,46.30
2022-10-21T06:01:25.992Z,37.67
2022-10-21T06:03:52.916Z,35.72
2022-10-21T06:06:19.704Z,46.00
2022-10-21T06:08:46.625Z,39.88
2022-10-21T06:11:16.721Z,38.50
2022-10-21T06:13:43.963Z,44.60
2022-10-21T06:16:12.539Z,40.72
2022-10-21T06:18:40.819Z,42.90
2022-10-21T06:21:07.885Z,36.47
2022-10-21T06:23:35.106Z,43.08
2022-10-21T06:26:08.408Z,42.55
2022-10-21T06:28:38.468Z,39.30
2022-10-21T06:31:06.587Z,50.05
2022-10-21T06:33:34.334Z,42.67
2022-10-21T06:36:01.360Z,36.08
2022-10-21T06:38:28.135Z,41.25
2022-10-21T06:41:02.110Z,45.28
2022-10-21T06:43:29.549Z,40.55
2022-10-21T06:46:04.498Z,42.38
2022-10-21T06:48:31.494Z,40.75
2022-10-21T06:51:03.750Z,41.33
2022-10-21T06:53:32.942Z,40.63
2022-10-21T06:56:08.202Z,44.88
2022-10-21T06:58:56.974Z,42.40
2022-10-21T07:01:34.719Z,41.17
2022-10-21T07:04:08.639Z,38.90
2022-10-21T07:06:35.499Z,50.00
2022-10-21T07:09:03.166Z,46.28
2022-10-21T07:11:29.966Z,49.55
2022-10-21T07:13:56.959Z,44.60
2022-10-21T07:16:32.384Z,47.28
2022-10-21T07:18:59.459Z,42.42
2022-10-21T07:21:27.996Z,43.50
2022-10-21T07:23:58.961Z,45.30
2022-10-21T07:26:28.277Z,39.67
2022-10-21T07:28:58.018Z,37.45
2022-10-21T07:31:25.216Z,40.63
2022-10-21T07:33:52.126Z,39.60
2022-10-21T07:36:25.271Z,50.10
2022-10-21T07:38:53.324Z,80.82
2022-10-21T07:41:29.465Z,67.72
2022-10-21T07:43:56.341Z,45.42
2022-10-21T07:46:23.631Z,40.72
2022-10-21T07:48:51.061Z,38.55
2022-10-21T07:51:21.053Z,37.33
2022-10-21T07:53:53.724Z,39.20
2022-10-21T07:56:25.831Z,44.92
2022-10-21T07:58:53.355Z,41.05
2022-10-21T08:01:21.070Z,40.90
2022-10-21T08:03:48.164Z,42.63
2022-10-21T08:06:17.422Z,48.08
2022-10-21T08:08:44.832Z,44.05
2022-10-21T08:11:12.484Z,35.10
2022-10-21T08:13:41.600Z,37.33
2022-10-21T08:16:08.410Z,44.28
2022-10-21T08:18:35.241Z,43.40
2022-10-21T08:21:04.260Z,42.47
2022-10-21T08:23:31.277Z,40.15
2022-10-21T08:26:00.809Z,40.40
2022-10-21T08:28:30.163Z,39.58
2022-10-21T08:31:11.686Z,36.65
2022-10-21T08:33:38.946Z,39.47
2022-10-21T08:36:07.728Z,36.72
2022-10-21T08:38:34.595Z,39.55
2022-10-21T08:41:02.357Z,38.75
2022-10-21T08:43:35.383Z,48.50
2022-10-21T08:46:08.186Z,39.88
2022-10-21T08:48:47.875Z,38.25
2022-10-21T08:51:32.372Z,41.08
2022-10-21T08:54:05.700Z,38.45
2022-10-21T08:56:32.740Z,49.85
2022-10-21T08:58:59.496Z,38.38
2022-10-21T09:01:34.117Z,34.53
2022-10-21T09:04:08.620Z,46.75
2022-10-21T09:06:35.395Z,41.55
2022-10-21T09:09:07.978Z,43.25
2022-10-21T09:11:52.972Z,38.67
2022-10-21T09:14:25.533Z,40.58
2022-10-21T09:17:08.440Z,41.90
2022-10-21T09:20:04.511Z,37.67
2022-10-21T09:22:40.579Z,36.50
2022-10-21T09:25:55.122Z,43.97
2022-10-21T09:28:24.286Z,39.45
2022-10-21T09:30:52.668Z,33.75
2022-10-21T09:33:22.535Z,39.55
2022-10-21T09:36:04.888Z,36.97
2022-10-21T09:38:46.584Z,34.25
2022-10-21T09:41:23.279Z,30.77
2022-10-21T09:43:50.883Z,45.25
2022-10-21T09:46:18.571Z,33.70
2022-10-21T09:51:40.312Z,34.38
2022-10-21T09:54:16.839Z,32.55
2022-10-21T09:56:57.121Z,29.63
2022-10-21T09:59:27.968Z,33.38
2022-10-21T10:02:07.317Z,34.33
2022-10-21T10:04:35.443Z,35.00
2022-10-21T10:07:19.517Z,34.83
2022-10-21T10:09:48.202Z,36.55
2022-10-21T10:12:23.904Z,33.53
2022-10-21T10:14:51.993Z,33.47
2022-10-21T10:17:38.812Z,32.63
2022-10-21T10:20:06.059Z,33.42
2022-10-21T10:22:43.268Z,30.85
2022-10-21T10:25:28.589Z,37.25
2022-10-21T10:28:25.006Z,32.55
2022-10-21T10:30:57.490Z,34.00
2022-10-21T10:33:26.085Z,29.15
2022-10-21T10:36:03.328Z,39.47
2022-10-21T10:41:18.616Z,30.92
2022-10-21T10:43:52.043Z,31.63
2022-10-21T10:46:32.506Z,30.90
2022-10-21T10:49:25.249Z,29.42
2022-10-21T10:52:21.549Z,32.85
2022-10-21T10:54:49.872Z,34.10
2022-10-21T10:57:34.362Z,33.85
2022-10-21T11:00:20.357Z,29.83
2022-10-21T11:05:45.264Z,33.97
2022-10-21T11:08:34.235Z,30.40
2022-10-21T11:11:05.849Z,30.42
2022-10-21T11:13:38.805Z,36.85
2022-10-21T11:16:44.883Z,33.03
2022-10-21T11:19:42.028Z,35.00
2022-10-21T11:22:21.073Z,38.67
2022-10-21T11:25:26.803Z,38.15
2022-10-21T11:27:59.124Z,37.33
2022-10-21T11:30:59.863Z,33.05
2022-10-21T11:33:29.495Z,33.95
2022-10-21T11:36:15.952Z,34.78
2022-10-21T11:39:10.432Z,30.30
2022-10-21T11:41:40.518Z,28.70
2022-10-21T11:44:38.723Z,33.00
2022-10-21T11:47:16.923Z,32.83
2022-10-21T11:49:55.711Z,25.45
2022-10-21T11:52:32.851Z,30.83
2022-10-21T11:55:16.073Z,32.13
2022-10-21T11:58:02.471Z,35.17
2022-10-21T12:00:41.990Z,29.02
2022-10-21T12:03:20.630Z,30.65
2022-10-21T12:05:52.820Z,27.95
2022-10-21T12:08:27.527Z,25.58
2022-10-21T12:11:06.265Z,30.55
2022-10-21T12:13:44.044Z,27.23
2022-10-21T12:16:16.137Z,31.55
2022-10-21T12:18:56.913Z,28.45
2022-10-21T12:21:31.250Z,27.58
2022-10-21T12:24:14.317Z,25.88
2022-10-21T12:26:53.538Z,26.70
2022-10-21T12:29:49.406Z,26.20
2022-10-21T12:32:27.205Z,28.65
2022-10-21T12:34:54.815Z,27.67
2022-10-21T12:37:52.662Z,29.13
2022-10-21T12:40:25.512Z,27.67
2022-10-21T12:43:20.085Z,33.25
2022-10-21T12:45:47.863Z,27.10
2022-10-21T12:48:38.327Z,30.70
2022-10-21T12:51:16.599Z,27.63
2022-10-21T12:54:02.150Z,24.00
2022-10-21T12:56:59.336Z,24.70
2022-10-21T12:59:34.053Z,34.40
2022-10-21T13:02:07.839Z,26.00
2022-10-21T13:04:34.576Z,27.80
2022-10-21T13:07:15.042Z,26.08
2022-10-21T13:09:51.162Z,38.88
2022-10-21T13:12:17.935Z,24.75
2022-10-21T13:14:53.995Z,28.05
2022-10-21T13:17:20.685Z,29.42
2022-10-21T13:19:55.761Z,33.72
2022-10-21T13:22:36.035Z,25.60
2022-10-21T13:25:32.392Z,29.23
2022-10-21T13:28:18.367Z,30.35
2022-10-21T13:30:51.004Z,30.58
2022-10-21T13:33:30.368Z,30.45
2022-10-21T13:36:08.051Z,32.42
2022-10-21T13:38:37.529Z,34.17
2022-10-21T13:41:18.119Z,32.63
2022-10-21T13:43:53.409Z,31.13
2022-10-21T13:46:26.735Z,32.08
2022-10-21T13:48:54.302Z,26.33
2022-10-21T13:51:27.624Z,27.13
2022-10-21T13:54:00.175Z,30.17
2022-10-21T13:56:38.236Z,27.52
2022-10-21T13:59:07.065Z,39.25
2022-10-21T14:01:49.028Z,31.20
2022-10-21T14:06:53.063Z,33.40
2022-10-21T14:09:24.273Z,35.92
2022-10-21T14:12:01.560Z,40.10
2022-10-21T14:14:30.009Z,45.15
2022-10-21T14:17:02.760Z,39.90
2022-10-21T14:19:36.728Z,34.15
2022-10-21T14:24:43.063Z,39.65
2022-10-21T14:27:16.704Z,28.58
2022-10-21T14:29:44.512Z,32.90
2022-10-21T14:32:15.559Z,33.63
2022-10-21T14:34:58.540Z,42.00
2022-10-21T14:37:25.367Z,32.80
2022-10-21T14:39:52.120Z,34.38
2022-10-21T14:42:22.364Z,34.20
2022-10-21T14:44:52.360Z,36.80
2022-10-21T14:47:24.910Z,38.78
2022-10-21T14:49:54.613Z,38.70
2022-10-21T14:52:42.704Z,37.00
2022-10-21T14:55:14.597Z,41.35
2022-10-21T15:00:41.644Z,35.10
2022-10-21T15:03:10.781Z,37.85
2022-10-21T15:05:48.587Z,46.35
2022-10-21T15:08:28.886Z,33.75
2022-10-21T15:11:02.263Z,34.65
2022-10-21T15:13:29.049Z,33.10
2022-10-21T15:15:59.010Z,35.35
2022-10-21T15:18:30.461Z,37.80
2022-10-21T15:21:06.030Z,36.42
2022-10-21T15:23:43.413Z,32.83
2022-10-21T15:26:16.256Z,36.78
2022-10-21T15:28:43.342Z,35.17
2022-10-21T15:31:28.233Z,36.35
2022-10-21T15:33:57.032Z,34.35
2022-10-21T15:36:24.510Z,30.27
2022-10-21T15:38:51.267Z,28.05
2022-10-21T15:41:21.230Z,36.10
2022-10-21T15:43:58.874Z,37.58
2022-10-21T15:46:27.240Z,33.47
2022-10-21T15:48:54.166Z,34.63
2022-10-21T15:51:21.016Z,35.60
2022-10-21T15:53:47.800Z,34.03
2022-10-21T15:56:18.823Z,34.00
2022-10-21T15:58:45.725Z,43.28
2022-10-21T16:01:15.000Z,34.40
2022-10-21T16:03:42.521Z,36.67
2022-10-21T16:06:16.449Z,31.63
2022-10-21T16:08:43.275Z,37.75
2022-10-21T16:11:15.271Z,34.45
2022-10-21T16:13:45.710Z,39.55
2022-10-21T16:16:21.855Z,38.35
2022-10-21T16:18:48.727Z,37.65
2022-10-21T16:21:16.111Z,33.90
2022-10-21T16:23:43.512Z,34.60
2022-10-21T16:26:25.008Z,37.10
2022-10-21T16:28:53.200Z,37.88
2022-10-21T16:31:20.047Z,37.42
2022-10-21T16:33:46.813Z,39.60
2022-10-21T16:36:13.706Z,39.17
2022-10-21T16:38:40.476Z,44.20
2022-10-21T16:41:15.501Z,37.03
2022-10-21T16:43:43.416Z,39.08
2022-10-21T16:46:24.902Z,46.40
2022-10-21T16:48:52.733Z,37.53
2022-10-21T16:51:22.671Z,38.20
2022-10-21T16:53:49.689Z,41.85
2022-10-21T16:56:17.178Z,40.75
2022-10-21T16:58:44.711Z,42.67
2022-10-21T17:01:18.049Z,50.13
2022-10-21T17:03:44.864Z,39.55
2022-10-21T17:06:21.008Z,48.83
2022-10-21T17:08:49.255Z,49.35
2022-10-21T17:11:20.793Z,35.50
2022-10-21T17:13:47.717Z,34.58
2022-10-21T17:16:15.574Z,36.72
2022-10-21T17:18:43.096Z,39.17
2022-10-21T17:21:22.964Z,43.58
2022-10-21T17:23:51.098Z,42.72
2022-10-21T17:26:19.012Z,39.17
2022-10-21T17:28:46.485Z,47.45
2022-10-21T17:31:21.998Z,41.85
2022-10-21T17:33:50.359Z,44.58
2022-10-21T17:36:18.368Z,38.22
2022-10-21T17:38:45.707Z,37.05
2022-10-21T17:41:15.080Z,38.38
2022-10-21T17:43:42.022Z,39.47
2022-10-21T17:46:15.871Z,40.25
2022-10-21T17:48:42.822Z,37.97
2022-10-21T17:51:09.771Z,58.42
2022-10-21T17:53:36.696Z,48.90
2022-10-21T17:56:06.856Z,39.58
2022-10-21T17:58:34.509Z,37.13
2022-10-21T18:01:10.116Z,39.72
2022-10-21T18:03:37.377Z,44.65
2022-10-21T18:06:06.451Z,41.45
2022-10-21T18:08:33.284Z,40.75
2022-10-21T18:11:00.809Z,40.25
2022-10-21T18:13:30.003Z,37.80
2022-10-21T18:16:07.278Z,38.78
2022-10-21T18:18:34.287Z,46.17
2022-10-21T18:21:05.966Z,41.53
2022-10-21T18:23:33.507Z,43.17
2022-10-21T18:26:25.012Z,39.53
2022-10-21T18:28:53.836Z,41.30
2022-10-21T18:31:24.399Z,46.10
2022-10-21T18:33:54.839Z,34.67
2022-10-21T18:36:22.415Z,37.70
2022-10-21T18:38:49.828Z,40.33
2022-10-21T18:41:20.501Z,43.88
2022-10-21T18:43:53.639Z,41.47
2022-10-21T18:46:21.414Z,40.42
2022-10-21T18:48:48.854Z,38.08
2022-10-21T18:51:17.066Z,41.10
2022-10-21T18:53:47.240Z,46.97
2022-10-21T18:56:17.480Z,38.92
2022-10-21T18:58:44.680Z,44.25
2022-10-21T19:01:12.209Z,46.70
2022-10-21T19:03:39.132Z,56.50
2022-10-21T19:06:19.511Z,48.95
2022-10-21T19:08:47.717Z,52.05
2022-10-21T19:11:14.563Z,46.28
2022-10-21T19:13:41.352Z,50.75
2022-10-21T19:16:08.240Z,43.03
2022-10-21T19:18:35.111Z,43.85
2022-10-21T19:21:01.908Z,42.00
2022-10-21T19:23:31.632Z,46.80
2022-10-21T19:26:08.848Z,48.80
2022-10-21T19:28:36.540Z,41.90
2022-10-21T19:31:03.812Z,51.60
2022-10-21T19:33:31.130Z,41.47
2022-10-21T19:36:02.070Z,46.15
2022-10-21T19:38:43.387Z,48.60
2022-10-21T19:41:13.664Z,44.33
2022-10-21T19:43:40.413Z,49.00
2022-10-21T19:46:08.454Z,42.45
2022-10-21T19:48:36.841Z,54.33
2022-10-21T19:51:04.693Z,53.70
2022-10-21T19:53:34.160Z,56.15
2022-10-21T19:56:05.636Z,51.10
2022-10-21T19:58:33.620Z,44.03
2022-10-21T20:01:09.042Z,50.05
2022-10-21T20:03:40.119Z,45.95
2022-10-21T20:08:44.071Z,46.88
2022-10-21T20:11:19.384Z,52.00
2022-10-21T20:13:47.130Z,41.92
2022-10-21T20:16:16.292Z,42.22
2022-10-21T20:18:43.252Z,45.72
2022-10-21T20:21:10.004Z,50.25
2022-10-21T20:23:36.849Z,51.67
2022-10-21T20:26:04.601Z,51.20
2022-10-21T20:28:31.943Z,44.22
2022-10-21T20:31:11.203Z,51.80
2022-10-21T20:33:41.327Z,52.97
2022-10-21T20:36:12.509Z,48.17
2022-10-21T20:38:39.723Z,50.40
2022-10-21T20:41:09.561Z,54.35
2022-10-21T20:43:37.984Z,49.85
2022-10-21T20:46:07.564Z,52.38
2022-10-21T20:48:34.811Z,49.25
2022-10-21T20:51:07.839Z,57.95
2022-10-21T20:53:35.609Z,48.55
2022-10-21T20:56:03.722Z,59.10
2022-10-21T20:58:33.395Z,54.95
2022-10-21T21:01:10.251Z,51.83
2022-10-21T21:03:39.191Z,49.15
2022-10-21T21:06:07.124Z,52.63
2022-10-21T21:08:44.569Z,52.20
2022-10-21T21:13:44.658Z,54.17
2022-10-21T21:16:17.119Z,90.35
2022-10-21T21:18:49.532Z,80.07
2022-10-21T21:21:18.540Z,63.63
2022-10-21T21:23:45.535Z,60.15
2022-10-21T21:26:21.580Z,59.92
2022-10-21T21:28:49.034Z,58.13
2022-10-21T21:31:15.814Z,60.75
2022-10-21T21:33:43.026Z,58.22
2022-10-21T21:36:10.312Z,63.15
2022-10-21T21:38:37.520Z,52.75
2022-10-21T21:41:08.100Z,58.25
2022-10-21T21:43:38.027Z,57.22
2022-10-21T21:46:05.115Z,59.03
2022-10-21T21:48:32.482Z,51.55
2022-10-21T21:51:07.859Z,50.45
2022-10-21T21:53:34.606Z,56.60
2022-10-21T21:56:03.401Z,49.83
2022-10-21T21:58:30.643Z,58.45
2022-10-21T22:00:57.716Z,60.08
2022-10-21T22:03:24.492Z,60.80
2022-10-21T22:05:51.460Z,60.10
2022-10-21T22:08:18.202Z,54.72
2022-10-21T22:10:44.945Z,58.97
2022-10-21T22:13:12.789Z,58.78
2022-10-21T22:15:48.443Z,64.30
2022-10-21T22:18:15.819Z,57.92
2022-10-21T22:20:42.649Z,51.50
2022-10-21T22:23:09.389Z,51.92
2022-10-21T22:25:36.159Z,51.78
2022-10-21T22:28:02.948Z,52.80
2022-10-21T22:30:29.752Z,47.53
2022-10-21T22:32:56.516Z,54.17
2022-10-21T22:35:23.279Z,54.65
2022-10-21T22:37:50.056Z,52.92
2022-10-21T22:40:16.820Z,61.65
2022-10-21T22:45:11.235Z,53.17
2022-10-21T22:47:38.208Z,49.63
2022-10-21T22:50:05.539Z,50.72
2022-10-21T22:52:32.333Z,54.47
2022-10-21T22:54:59.073Z,55.22
2022-10-21T22:57:25.880Z,51.50
2022-10-21T22:59:53.603Z,49.05
2022-10-21T23:02:20.741Z,48.58
2022-10-21T23:04:47.482Z,50.25
2022-10-21T23:07:14.233Z,53.90
2022-10-21T23:09:41.001Z,48.53
2022-10-21T23:12:07.964Z,49.53
2022-10-21T23:14:35.224Z,61.05
2022-10-21T23:17:01.958Z,58.85
2022-10-21T23:19:28.726Z,49.08
2022-10-21T23:21:55.516Z,53.83
2022-10-21T23:24:22.306Z,51.63
2022-10-21T23:26:49.094Z,52.47
2022-10-21T23:29:15.862Z,51.83
2022-10-21T23:31:42.641Z,60.90
2022-10-21T23:34:10.070Z,47.65
2022-10-21T23:36:37.099Z,48.58
2022-10-21T23:39:04.571Z,48.47
2022-10-21T23:41:31.334Z,50.75
2022-10-21T23:43:58.110Z,46.53
2022-10-21T23:46:25.051Z,58.95
2022-10-21T23:48:51.972Z,46.00
2022-10-21T23:51:19.433Z,136.25
2022-10-21T23:53:46.743Z,55.97
2022-10-21T23:56:13.537Z,84.53
2022-10-21T23:58:40.276Z,49.80
